Time;durP1;ratioP1;P1;durP2;ratioP2;P2;SDS_P1;SDS_P2;PMS_P1;PMS_P2;Temp;Humidity;BMP_temperature;BMP_pressure;BME280_temperature;BME280_humidity;BME280_pressure;Samples;Min_cycle;Max_cycle;Signal;HPM_P1;HPM_P2
2023/08/05 00:01:14;;;;;;;4.65;1.55;;;;;;;;;;5007196;28;20029;-85
2023/08/05 00:03:41;;;;;;;2.33;1.30;;;;;;;;;;4984143;28;20030;-82
2023/08/05 00:06:07;;;;;;;3.05;1.60;;;;;;;;;;5005131;28;20022;-84
2023/08/05 00:08:33;;;;;;;3.40;1.55;;;;;;;;;;5007763;28;20716;-84
2023/08/05 00:10:59;;;;;;;4.25;1.73;;;;;;;;;;5001804;28;20030;-84
2023/08/05 00:13:25;;;;;;;3.67;1.83;;;;;;;;;;5002865;28;20037;-83
2023/08/05 00:15:51;;;;;;;4.35;1.60;;;;;;;;;;5003966;28;20034;-83
2023/08/05 00:18:17;;;;;;;3.10;1.95;;;;;;;;;;5000097;28;20489;-83
2023/08/05 00:20:43;;;;;;;2.33;1.20;;;;;;;;;;4985490;28;20034;-84
2023/08/05 00:23:08;;;;;;;3.08;1.70;;;;;;;;;;5003077;28;20399;-83
2023/08/05 00:25:34;;;;;;;2.58;1.30;;;;;;;;;;4989672;28;20054;-83
2023/08/05 00:28:00;;;;;;;3.13;1.70;;;;;;;;;;4992614;28;20038;-83
2023/08/05 00:30:26;;;;;;;3.17;1.50;;;;;;;;;;5004785;28;20148;-84
2023/08/05 00:32:52;;;;;;;2.42;1.40;;;;;;;;;;5000700;28;20030;-83
2023/08/05 00:35:18;;;;;;;4.13;2.15;;;;;;;;;;5000537;28;20252;-84
2023/08/05 00:37:44;;;;;;;4.57;1.45;;;;;;;;;;4999220;28;20018;-84
2023/08/05 00:40:10;;;;;;;4.15;1.80;;;;;;;;;;4984797;28;20026;-84
2023/08/05 00:42:36;;;;;;;2.97;1.50;;;;;;;;;;5007439;28;20152;-84
2023/08/05 00:45:03;;;;;;;4.68;1.60;;;;;;;;;;4987370;28;20076;-84
2023/08/05 00:47:29;;;;;;;3.03;1.50;;;;;;;;;;5002270;28;20236;-84
2023/08/05 00:49:58;;;;;;;2.10;1.30;;;16.10;99.90;;;;;;5004467;28;20048;-85
2023/08/05 00:52:24;;;;;;;5.85;1.67;;;;;;;;;;5005150;28;20022;-84
2023/08/05 00:54:50;;;;;;;4.03;1.50;;;;;;;;;;4999245;28;20018;-84
2023/08/05 00:57:18;;;;;;;3.67;1.60;;;16.20;99.90;;;;;;5018411;28;20923;-84
2023/08/05 00:59:44;;;;;;;4.43;1.52;;;;;;;;;;5006363;28;20065;-84
2023/08/05 01:02:10;;;;;;;2.50;1.63;;;;;;;;;;5007649;28;20590;-84
2023/08/05 01:04:36;;;;;;;5.07;2.10;;;;;;;;;;5004937;28;20038;-84
2023/08/05 01:07:03;;;;;;;2.88;1.70;;;16.10;99.90;;;;;;5006551;28;20030;-85
2023/08/05 01:09:29;;;;;;;4.47;1.88;;;;;;;;;;5008562;28;20034;-84
2023/08/05 01:11:55;;;;;;;3.72;1.52;;;;;;;;;;5005776;28;20168;-85
2023/08/05 01:14:21;;;;;;;6.75;2.10;;;;;;;;;;5007416;28;20030;-85
2023/08/05 01:16:47;;;;;;;3.25;1.92;;;;;;;;;;5008915;28;20026;-86
2023/08/05 01:19:25;;;;;;;4.72;2.15;;;16.30;99.90;;;;;;5006985;28;20026;-86
2023/08/05 01:22:02;;;;;;;4.28;1.45;;;15.60;99.90;;;;;;4993542;28;20030;-83
2023/08/05 01:24:34;;;;;;;6.85;2.92;;;;;;;;;;4986270;28;20136;-86
2023/08/05 01:27:02;;;;;;;7.13;2.00;;;16.10;99.90;;;;;;5002144;28;20089;-85
2023/08/05 01:29:28;;;;;;;6.13;2.40;;;;;;;;;;4985531;28;20022;-87
2023/08/05 01:31:55;;;;;;;7.53;3.00;;;16.10;99.90;;;;;;5001508;28;20065;-86
2023/08/05 01:34:21;;;;;;;4.68;2.13;;;;;;;;;;4999486;28;20038;-85
2023/08/05 01:36:47;;;;;;;5.82;2.38;;;;;;;;;;4985199;28;21898;-86
2023/08/05 01:39:12;;;;;;;5.07;2.35;;;;;;;;;;5005838;28;20061;-86
2023/08/05 01:41:38;;;;;;;3.25;1.85;;;;;;;;;;4985274;28;20049;-85
2023/08/05 01:44:04;;;;;;;5.93;1.67;;;;;;;;;;5000268;28;20026;-85
2023/08/05 01:46:30;;;;;;;4.15;2.03;;;;;;;;;;5003393;28;20029;-87
2023/08/05 01:48:57;;;;;;;3.53;1.88;;;;;;;;;;5003557;28;20030;-86
2023/08/05 01:51:23;;;;;;;5.45;1.73;;;;;;;;;;5001804;28;20030;-86
2023/08/05 01:53:49;;;;;;;4.65;1.98;;;;;;;;;;4998412;28;20045;-85
2023/08/05 01:56:15;;;;;;;6.00;2.55;;;;;;;;;;4986722;28;20041;-85
2023/08/05 01:58:41;;;;;;;8.45;2.50;;;;;;;;;;4983693;28;20025;-85
2023/08/05 02:01:07;;;;;;;5.20;2.35;;;;;;;;;;4997390;28;20034;-87
2023/08/05 02:03:32;;;;;;;5.07;2.53;;;;;;;;;;4999559;28;20494;-86
2023/08/05 02:05:58;;;;;;;4.07;2.60;;;;;;;;;;5000216;28;20162;-86
2023/08/05 02:08:24;;;;;;;5.88;2.75;;;;;;;;;;5007109;28;20076;-86
2023/08/05 02:10:50;;;;;;;8.60;2.80;;;;;;;;;;4986726;28;20295;-85
2023/08/05 02:13:16;;;;;;;3.40;2.17;;;;;;;;;;5003130;28;20018;-85
2023/08/05 02:15:42;;;;;;;7.05;2.30;;;;;;;;;;5003291;28;20025;-86
2023/08/05 02:18:08;;;;;;;2.85;1.50;;;;;;;;;;5003384;28;20044;-86
2023/08/05 02:20:35;;;;;;;5.13;2.47;;;;;;;;;;4986935;28;20021;-86
2023/08/05 02:23:01;;;;;;;6.32;2.17;;;;;;;;;;5002456;28;20041;-85
2023/08/05 02:25:27;;;;;;;5.93;2.28;;;;;;;;;;5006233;28;20022;-85
2023/08/05 02:27:53;;;;;;;3.63;1.92;;;;;;;;;;4991558;28;20490;-85
2023/08/05 02:30:19;;;;;;;6.35;2.50;;;;;;;;;;4985297;28;20430;-85
2023/08/05 02:32:45;;;;;;;2.80;1.70;;;;;;;;;;5006930;28;20038;-86
2023/08/05 02:35:11;;;;;;;5.22;1.67;;;;;;;;;;4989125;28;20041;-86
2023/08/05 02:37:37;;;;;;;5.55;2.40;;;;;;;;;;5007740;28;20594;-87
2023/08/05 02:40:03;;;;;;;4.65;1.70;;;;;;;;;;5002634;28;20027;-86
2023/08/05 02:42:29;;;;;;;2.80;1.52;;;;;;;;;;5007670;28;20494;-87
2023/08/05 02:44:55;;;;;;;2.83;1.73;;;;;;;;;;5007425;28;20058;-87
2023/08/05 02:47:21;;;;;;;4.50;1.92;;;;;;;;;;4992885;28;20049;-87
2023/08/05 02:49:47;;;;;;;3.83;2.13;;;;;;;;;;5007812;28;20041;-88
2023/08/05 02:52:13;;;;;;;3.25;1.95;;;;;;;;;;4993403;28;20049;-87
2023/08/05 02:54:39;;;;;;;4.20;1.83;;;;;;;;;;4988704;28;20430;-86
2023/08/05 02:57:05;;;;;;;3.33;1.80;;;;;;;;;;4990721;28;20050;-85
2023/08/05 02:59:31;;;;;;;7.15;1.60;;;;;;;;;;5009724;28;20823;-88
2023/08/05 03:01:57;;;;;;;4.18;1.95;;;;;;;;;;5001550;28;20036;-88
2023/08/05 03:04:23;;;;;;;3.95;1.90;;;;;;;;;;5006701;28;20025;-86
2023/08/05 03:06:49;;;;;;;2.97;1.40;;;;;;;;;;4993702;28;20034;-86
2023/08/05 03:09:15;;;;;;;7.45;1.95;;;;;;;;;;5009995;28;20582;-87
2023/08/05 03:11:41;;;;;;;3.80;1.83;;;;;;;;;;5013211;28;20096;-86
2023/08/05 03:14:07;;;;;;;4.80;2.20;;;;;;;;;;5010004;28;20041;-86
2023/08/05 03:16:33;;;;;;;5.13;2.20;;;;;;;;;;4987267;28;20042;-88
2023/08/05 03:18:59;;;;;;;4.93;1.90;;;;;;;;;;5008897;28;20100;-87
2023/08/05 03:21:25;;;;;;;8.63;1.90;;;;;;;;;;4990489;28;20030;-86
2023/08/05 03:23:51;;;;;;;3.00;1.75;;;;;;;;;;4993495;28;20030;-86
2023/08/05 03:26:16;;;;;;;10.43;2.47;;;;;;;;;;4997548;28;20121;-86
2023/08/05 03:28:42;;;;;;;3.78;1.92;;;;;;;;;;5008938;28;20446;-85
2023/08/05 03:31:08;;;;;;;5.10;2.47;;;;;;;;;;5000338;28;20037;-89
2023/08/05 03:33:34;;;;;;;3.38;1.85;;;;;;;;;;5022629;28;20040;-86
2023/08/05 03:36:01;;;;;;;2.65;1.02;;;;;;;;;;5004420;28;20066;-86
2023/08/05 03:38:27;;;;;;;5.05;1.73;;;;;;;;;;5005396;28;20025;-85
2023/08/05 03:40:53;;;;;;;2.78;1.48;;;;;;;;;;5007643;28;20030;-85
2023/08/05 03:43:19;;;;;;;3.78;1.70;;;;;;;;;;5003175;28;20136;-86
2023/08/05 03:45:51;;;;;;;3.20;1.65;;;;;;;;;;4986420;28;20030;-85
2023/08/05 03:48:17;;;;;;;4.75;1.50;;;;;;;;;;4993595;28;20053;-85
2023/08/05 03:50:43;;;;;;;3.97;1.77;;;;;;;;;;5002787;28;20490;-86
2023/08/05 03:53:09;;;;;;;5.97;2.13;;;;;;;;;;4985301;28;20034;-84
2023/08/05 03:55:35;;;;;;;3.58;1.40;;;;;;;;;;4990562;28;20032;-85
2023/08/05 03:58:01;;;;;;;2.90;1.48;;;;;;;;;;4973009;28;20053;-84
2023/08/05 04:00:28;;;;;;;4.40;1.98;;;;;;;;;;5005891;28;20474;-81
2023/08/05 04:02:54;;;;;;;3.88;2.22;;;;;;;;;;5013719;28;20026;-85
2023/08/05 04:05:20;;;;;;;12.35;1.90;;;;;;;;;;5031820;28;20049;-85
2023/08/05 04:07:47;;;;;;;3.45;1.50;;;;;;;;;;5009453;28;20655;-83
2023/08/05 04:10:13;;;;;;;3.55;1.60;;;15.10;99.90;;;;;;5006385;28;20021;-83
2023/08/05 04:12:39;;;;;;;4.50;2.03;;;;;;;;;;5005313;28;20034;-83
2023/08/05 04:15:07;;;;;;;4.22;1.95;;;;;;;;;;5011315;28;20038;-84
2023/08/05 04:17:33;;;;;;;5.90;2.00;;;;;;;;;;5013526;28;20137;-86
2023/08/05 04:20:00;;;;;;;3.85;1.63;;;;;;;;;;4997738;28;20029;-85
2023/08/05 04:22:27;;;;;;;3.00;1.08;;;;;;;;;;5003509;28;20018;-84
2023/08/05 04:24:53;;;;;;;3.83;1.80;;;15.40;99.90;;;;;;4996995;28;20031;-84
2023/08/05 04:27:19;;;;;;;3.70;1.63;;;;;;;;;;4988019;28;20494;-84
2023/08/05 04:29:45;;;;;;;3.58;1.70;;;;;;;;;;5001021;28;20025;-84
2023/08/05 04:32:11;;;;;;;4.40;2.30;;;;;;;;;;5002172;28;20034;-84
2023/08/05 04:34:37;;;;;;;3.92;1.88;;;;;;;;;;5000995;28;20036;-85
2023/08/05 04:37:20;;;;;;;3.58;1.75;;;15.00;99.90;;;;;;5005833;28;20025;-84
2023/08/05 04:39:46;;;;;;;4.68;2.00;;;;;;;;;;4988038;28;20033;-84
2023/08/05 04:42:12;;;;;;;3.78;2.08;;;;;;;;;;4983756;28;20045;-84
2023/08/05 04:44:40;;;;;;;3.63;1.95;;;15.30;99.90;;;;;;4997870;28;20022;-84
2023/08/05 04:47:07;;;;;;;5.32;2.25;;;15.00;99.90;;;;;;4989014;28;20040;-85
2023/08/05 04:49:33;;;;;;;4.40;1.65;;;;;;;;;;4995791;28;20096;-84
2023/08/05 04:51:59;;;;;;;5.70;2.40;;;;;;;;;;4983961;28;20076;-85
2023/08/05 04:54:25;;;;;;;4.65;1.80;;;;;;;;;;5001304;28;20030;-85
2023/08/05 04:56:51;;;;;;;2.97;1.50;;;;;;;;;;5003132;28;20044;-86
2023/08/05 04:59:19;;;;;;;5.78;2.05;;;;;;;;;;5001730;28;20033;-85
2023/08/05 05:01:44;;;;;;;4.60;2.30;;;15.60;99.90;;;;;;5002641;28;20029;-84
2023/08/05 05:04:10;;;;;;;5.65;2.83;;;;;;;;;;5001530;28;20537;-84
2023/08/05 05:06:36;;;;;;;4.05;1.85;;;;;;;;;;5003206;28;20084;-83
2023/08/05 05:09:02;;;;;;;4.70;2.20;;;;;;;;;;5000202;28;20036;-85
2023/08/05 05:11:29;;;;;;;4.18;1.92;;;;;;;;;;4982585;28;20037;-85
2023/08/05 05:13:56;;;;;;;11.25;2.50;;;;;;;;;;4985052;28;20034;-85
2023/08/05 05:16:23;;;;;;;4.72;2.00;;;;;;;;;;5003305;28;20033;-84
2023/08/05 05:18:49;;;;;;;3.53;2.00;;;;;;;;;;5002463;28;20037;-84
2023/08/05 05:21:15;;;;;;;3.78;1.95;;;;;;;;;;4996961;28;20030;-84
2023/08/05 05:23:41;;;;;;;8.95;2.45;;;;;;;;;;5000388;28;20658;-84
2023/08/05 05:26:07;;;;;;;4.57;1.98;;;;;;;;;;4983093;28;20383;-84
2023/08/05 05:28:33;;;;;;;8.18;2.08;;;;;;;;;;4987283;28;20120;-84
2023/08/05 05:31:02;;;;;;;4.38;1.85;;;15.80;99.90;;;;;;5002505;28;20081;-85
2023/08/05 05:33:28;;;;;;;3.42;1.67;;;;;;;;;;4997337;28;20035;-83
2023/08/05 05:35:54;;;;;;;4.40;2.17;;;;;;;;;;4997206;28;20040;-85
2023/08/05 05:38:20;;;;;;;5.63;2.20;;;;;;;;;;4998393;28;20576;-84
2023/08/05 05:40:46;;;;;;;2.85;1.40;;;;;;;;;;5002648;28;20022;-84
2023/08/05 05:43:12;;;;;;;4.28;1.83;;;;;;;;;;4999316;28;20113;-81
2023/08/05 05:45:39;;;;;;;3.15;1.67;;;;;;;;;;4998398;28;20548;-83
2023/08/05 05:48:06;;;;;;;6.38;2.15;;;;;;;;;;4982366;28;20391;-82
2023/08/05 05:50:32;;;;;;;4.00;1.60;;;;;;;;;;4999765;28;20038;-82
2023/08/05 05:52:57;;;;;;;5.93;2.50;;;;;;;;;;4990816;28;20045;-83
2023/08/05 05:55:24;;;;;;;6.03;2.88;;;;;;;;;;4981906;28;20093;-83
2023/08/05 05:57:49;;;;;;;4.68;2.35;;;;;;;;;;4980706;28;20022;-83
2023/08/05 06:00:15;;;;;;;6.40;2.28;;;;;;;;;;4981784;28;20087;-83
2023/08/05 06:02:41;;;;;;;7.18;3.30;;;;;;;;;;5004922;28;20038;-83
2023/08/05 06:05:08;;;;;;;6.65;3.00;;;15.40;99.90;;;;;;4984033;28;20034;-84
2023/08/05 06:07:34;;;;;;;7.10;2.65;;;;;;;;;;4999188;28;20033;-83
2023/08/05 06:10:00;;;;;;;5.88;2.83;;;;;;;;;;4981817;28;20452;-82
2023/08/05 06:12:32;;;;;;;6.30;2.35;;;;;;;;;;4992148;28;20034;-83
2023/08/05 06:14:59;;;;;;;5.25;2.40;;;;;;;;;;4998385;28;20029;-84
2023/08/05 06:17:25;;;;;;;5.82;2.80;;;;;;;;;;4995290;28;20034;-83
2023/08/05 06:19:51;;;;;;;6.72;2.72;;;;;;;;;;4999109;28;20026;-83
2023/08/05 06:22:17;;;;;;;5.80;2.33;;;;;;;;;;4986802;28;20212;-84
2023/08/05 06:24:43;;;;;;;9.30;3.25;;;;;;;;;;4999940;28;20030;-83
2023/08/05 06:27:09;;;;;;;4.80;2.35;;;;;;;;;;4980124;28;20045;-84
2023/08/05 06:29:35;;;;;;;5.45;2.75;;;;;;;;;;4993077;28;20033;-83
2023/08/05 06:32:01;;;;;;;8.45;2.83;;;;;;;;;;4991913;28;20038;-83
2023/08/05 06:34:27;;;;;;;4.88;2.80;;;;;;;;;;4995419;28;20033;-84
2023/08/05 06:36:53;;;;;;;4.53;2.33;;;;;;;;;;4995080;28;20399;-83
2023/08/05 06:39:19;;;;;;;4.05;2.42;;;;;;;;;;4997334;28;20030;-83
2023/08/05 06:41:45;;;;;;;5.45;2.70;;;;;;;;;;4997363;28;20482;-83
2023/08/05 06:44:11;;;;;;;7.38;2.97;;;;;;;;;;5002514;28;20037;-83
2023/08/05 06:46:39;;;;;;;4.60;2.10;;;;;;;;;;5001195;28;20033;-83
2023/08/05 06:49:05;;;;;;;4.13;1.95;;;;;;;;;;4997449;28;20019;-82
2023/08/05 06:51:34;;;;;;;5.10;2.67;;;;;;;;;;4996898;28;20030;-82
2023/08/05 06:54:00;;;;;;;6.43;2.88;;;;;;;;;;4997495;28;20492;-83
2023/08/05 06:56:25;;;;;;;6.30;2.70;;;;;;;;;;4996609;28;20041;-82
2023/08/05 06:58:52;;;;;;;6.45;3.72;;;;;;;;;;4997430;28;20498;-82
2023/08/05 07:01:18;;;;;;;8.40;2.72;;;;;;;;;;4991755;28;20029;-82
2023/08/05 07:03:44;;;;;;;5.93;2.50;;;;;;;;;;4998689;28;20426;-83
2023/08/05 07:06:10;;;;;;;4.53;2.28;;;;;;;;;;5005835;28;20073;-83
2023/08/05 07:08:36;;;;;;;3.75;2.00;;;;;;;;;;5022086;28;20017;-81
2023/08/05 07:11:02;;;;;;;6.50;2.85;;;;;;;;;;5029660;28;20021;-82
2023/08/05 07:13:28;;;;;;;5.90;2.13;;;18.20;99.90;;;;;;5012220;28;20512;-83
2023/08/05 07:16:01;;;;;;;4.00;2.35;;;17.70;99.90;;;;;;5011487;28;20041;-83
2023/08/05 07:18:27;;;;;;;6.40;2.30;;;;;;;;;;5006587;28;20030;-83
2023/08/05 07:20:53;;;;;;;3.90;1.95;;;;;;;;;;5008918;28;20025;-84
2023/08/05 07:23:19;;;;;;;4.47;2.25;;;;;;;;;;5010604;28;20026;-84
2023/08/05 07:25:45;;;;;;;4.82;1.88;;;;;;;;;;4985821;28;20102;-84
2023/08/05 07:28:11;;;;;;;3.90;1.70;;;;;;;;;;4989809;28;20034;-84
2023/08/05 07:30:37;;;;;;;4.18;1.90;;;;;;;;;;5004964;28;20032;-84
2023/08/05 07:33:09;;;;;;;5.47;2.25;;;;;;;;;;5007312;28;20041;-82
2023/08/05 07:35:35;;;;;;;5.47;1.90;;;;;;;;;;5005723;28;20052;-82
2023/08/05 07:38:04;;;;;;;3.63;2.25;;;;;;;;;;5011415;28;20026;-81
2023/08/05 07:40:31;;;;;;;3.58;1.67;;;;;;;;;;5013183;28;20060;-83
2023/08/05 07:42:58;;;;;;;3.63;1.30;;;;;;;;;;4995176;28;20035;-82
2023/08/05 07:45:26;;;;;;;3.58;1.70;;;;;;;;;;4990414;28;20037;-82
2023/08/05 07:47:52;;;;;;;4.97;1.67;;;;;;;;;;5009634;28;20057;-83
2023/08/05 07:50:21;;;;;;;3.10;1.42;;;20.60;99.90;;;;;;5008063;28;20029;-83
2023/08/05 07:52:48;;;;;;;2.55;1.58;;;;;;;;;;5001225;28;20620;-83
2023/08/05 07:55:14;;;;;;;4.22;2.25;;;20.40;99.90;;;;;;5002603;28;20034;-83
2023/08/05 07:57:40;;;;;;;3.08;1.67;;;;;;;;;;4991050;28;20113;-83
2023/08/05 08:00:09;;;;;;;3.95;1.70;;;21.00;99.90;;;;;;5006111;28;20078;-83
2023/08/05 08:02:35;;;;;;;3.33;1.85;;;;;;;;;;5010233;28;20054;-83
2023/08/05 08:05:05;;;;;;;4.43;1.67;;;;;;;;;;5010139;28;20096;-84
2023/08/05 08:07:31;;;;;;;5.00;1.50;;;;;;;;;;5005790;28;20051;-84
2023/08/05 08:09:57;;;;;;;2.10;1.40;;;;;;;;;;5003821;28;20433;-82
2023/08/05 08:12:23;;;;;;;2.65;1.85;;;;;;;;;;5005700;28;20266;-82
2023/08/05 08:14:50;;;;;;;2.33;1.30;;;21.10;99.90;;;;;;5006823;28;20046;-83
2023/08/05 08:17:16;;;;;;;4.68;1.42;;;;;;;;;;4985599;28;20022;-82
2023/08/05 08:19:42;;;;;;;1.63;0.98;;;21.50;99.90;;;;;;4999285;28;20698;-82
2023/08/05 08:22:08;;;;;;;4.78;1.75;;;;;;;;;;4984954;28;20077;-81
2023/08/05 08:24:35;;;;;;;3.90;1.63;;;;;;;;;;5006770;28;20449;-81
2023/08/05 08:27:01;;;;;;;4.78;1.70;;;;;;;;;;5005622;28;20481;-82
2023/08/05 08:29:27;;;;;;;2.42;1.38;;;;;;;;;;4986730;28;20157;-82
2023/08/05 08:31:54;;;;;;;2.42;1.25;;;21.60;99.90;;;;;;5009473;28;20121;-83
2023/08/05 08:34:19;;;;;;;3.88;1.52;;;21.40;99.90;;;;;;5008382;28;20477;-83
2023/08/05 08:36:45;;;;;;;2.25;1.10;;;;;;;;;;5007934;28;20113;-82
2023/08/05 08:39:10;;;;;;;2.72;1.42;;;21.60;99.90;;;;;;5010740;28;20038;-82
2023/08/05 08:41:43;;;;;;;2.25;1.30;;;21.90;99.90;;;;;;4988999;28;20518;-80
2023/08/05 08:44:10;;;;;;;5.20;0.90;;;21.70;99.90;;;;;;4998227;28;20019;-81
2023/08/05 08:46:37;;;;;;;2.22;0.82;;;22.00;99.90;;;;;;5007983;28;20487;-82
2023/08/05 08:49:03;;;;;;;1.70;0.85;;;21.90;99.90;;;;;;5005444;28;20109;-82
2023/08/05 08:51:29;;;;;;;1.20;0.90;;;;;;;;;;5011360;28;20060;-81
2023/08/05 08:53:55;;;;;;;8.93;1.48;;;22.00;99.90;;;;;;5005381;28;20042;-81
2023/08/05 08:56:21;;;;;;;3.20;1.25;;;;;;;;;;4990353;28;20026;-82
2023/08/05 08:58:47;;;;;;;1.50;0.70;;;;;;;;;;4997577;28;20084;-83
2023/08/05 09:01:17;;;;;;;2.17;0.88;;;23.10;99.90;;;;;;5000456;28;20129;-83
2023/08/05 09:03:47;;;;;;;2.50;0.95;;;23.60;99.90;;;;;;4989016;28;20473;-81
2023/08/05 09:06:13;;;;;;;1.65;1.08;;;;;;;;;;5000877;28;20050;-82
2023/08/05 09:08:39;;;;;;;1.08;0.50;;;;;;;;;;4999275;28;20049;-81
2023/08/05 09:11:05;;;;;;;3.03;0.85;;;;;;;;;;4999252;28;20030;-80
2023/08/05 09:13:30;;;;;;;2.05;0.82;;;25.70;99.90;;;;;;5002778;28;20034;-83
2023/08/05 09:15:56;;;;;;;1.75;0.75;;;;;;;;;;4997611;28;20057;-84
2023/08/05 09:18:22;;;;;;;1.33;0.70;;;;;;;;;;4981602;28;20019;-83
2023/08/05 09:20:50;;;;;;;2.45;0.80;;;24.20;99.90;;;;;;4981335;28;20479;-82
2023/08/05 09:23:16;;;;;;;3.75;1.00;;;24.50;99.90;;;;;;5003265;28;20233;-83
2023/08/05 09:25:45;;;;;;;4.55;1.20;;;24.40;99.90;;;;;;5000298;28;20037;-81
2023/08/05 09:28:11;;;;;;;1.48;0.60;;;24.20;99.90;;;;;;4979030;28;20038;-82
2023/08/05 09:30:37;;;;;;;1.40;0.80;;;24.50;99.90;;;;;;4999211;28;20080;-82
2023/08/05 09:33:03;;;;;;;2.15;0.82;;;24.90;99.90;;;;;;5000673;28;20038;-82
2023/08/05 09:35:29;;;;;;;1.38;0.60;;;24.40;99.90;;;;;;4990250;28;20056;-82
2023/08/05 09:37:55;;;;;;;1.60;0.57;;;;;;;;;;4990624;28;20033;-81
2023/08/05 09:40:29;;;;;;;3.80;1.55;;;24.80;99.90;;;;;;5002242;28;20080;-81
2023/08/05 09:42:59;;;;;;;0.90;0.40;;;25.30;99.90;;;;;;5005843;28;20029;-83
2023/08/05 09:45:26;;;;;;;0.93;0.60;;;25.20;99.90;;;;;;4990190;28;20069;-82
2023/08/05 09:48:00;;;;;;;1.60;0.60;;;;;;;;;;4985641;28;20030;-82
2023/08/05 09:50:26;;;;;;;3.05;0.82;;;;;;;;;;4995432;28;20038;-83
2023/08/05 09:52:56;;;;;;;2.47;1.05;;;24.80;99.90;;;;;;4981240;28;20565;-82
2023/08/05 09:55:23;;;;;;;0.90;0.38;;;25.10;99.90;;;;;;5004547;28;20030;-82
2023/08/05 09:57:50;;;;;;;1.40;0.82;;;;;;;;;;5004871;28;20385;-83
2023/08/05 10:00:17;;;;;;;3.03;0.50;;;25.30;99.90;;;;;;5002197;28;20040;-83
2023/08/05 10:02:44;;;;;;;1.27;0.60;;;25.10;99.90;;;;;;4991112;28;20041;-82
2023/08/05 10:05:10;;;;;;;3.80;0.85;;;;;;;;;;4983574;28;20041;-83
2023/08/05 10:07:41;;;;;;;1.40;0.70;;;25.30;99.90;;;;;;4981259;28;20018;-80
2023/08/05 10:10:14;;;;;;;1.05;0.60;;;25.10;99.90;;;;;;4993022;28;20041;-83
2023/08/05 10:12:59;;;;;;;3.03;0.43;;;25.30;99.90;;;;;;4984242;28;20022;-82
2023/08/05 10:15:30;;;;;;;2.03;0.50;;;25.50;99.90;;;;;;5004223;28;20869;-81
2023/08/05 10:17:56;;;;;;;2.17;0.88;;;25.50;99.90;;;;;;5004108;28;20444;-84
2023/08/05 10:20:22;;;;;;;4.93;0.63;;;25.30;99.90;;;;;;4989426;28;20026;-83
2023/08/05 10:23:05;;;;;;;1.50;0.73;;;25.50;99.90;;;;;;5016912;28;20050;-80
2023/08/05 10:25:42;;;;;;;0.70;0.35;;;25.50;99.90;;;;;;5016631;28;20262;-83
2023/08/05 10:28:11;;;;;;;1.63;0.40;;;;;;;;;;4988167;28;20077;-83
2023/08/05 10:30:44;;;;;;;0.30;0.20;;;25.90;97.70;;;;;;4988393;28;20026;-81
2023/08/05 10:33:10;;;;;;;0.82;0.28;;;;;;;;;;4990250;28;20033;-83
2023/08/05 10:35:40;;;;;;;1.50;0.30;;;26.20;93.30;;;;;;4990620;28;20119;-82
2023/08/05 10:38:06;;;;;;;1.30;0.40;;;;;;;;;;4992003;28;20033;-84
2023/08/05 10:43:54;;;;;;;2.38;0.73;;;;;;;;;;4997763;28;20058;-84
2023/08/05 10:46:30;;;;;;;0.82;0.50;;;26.60;94.40;;;;;;4998661;28;20509;-83
2023/08/05 10:48:55;;;;;;;0.68;0.30;;;26.80;99.90;;;;;;5001693;28;20364;-81
2023/08/05 10:51:24;;;;;;;1.00;0.38;;;26.70;94.00;;;;;;4999884;28;20058;-81
2023/08/05 10:53:56;;;;;;;1.13;0.40;;;26.50;99.90;;;;;;4995733;28;20045;-83
2023/08/05 10:56:32;;;;;;;0.60;0.22;;;26.30;93.00;;;;;;4997613;28;23509;-83
2023/08/05 10:59:02;;;;;;;0.43;0.30;;;26.30;99.90;;;;;;4976550;28;20202;-83
2023/08/05 11:01:54;;;;;;;3.80;0.30;;;25.90;99.90;;;;;;4998351;28;20073;-83
2023/08/05 11:04:31;;;;;;;1.77;0.68;;;25.60;99.90;;;;;;4993432;28;20029;-83
2023/08/05 11:06:59;;;;;;;0.75;0.47;;;25.20;97.20;;;;;;4995401;28;20213;-83
2023/08/05 11:09:26;;;;;;;1.05;0.52;;;;;;;;;;4999045;28;20029;-82
2023/08/05 11:11:52;;;;;;;3.67;0.60;;;23.70;99.90;;;;;;4999794;28;20050;-83
2023/08/05 11:14:20;;;;;;;1.70;0.77;;;24.30;99.90;;;;;;4995952;28;20030;-82
2023/08/05 11:16:46;;;;;;;3.15;0.82;;;24.10;99.50;;;;;;4999882;28;20062;-84
2023/08/05 11:19:13;;;;;;;1.63;0.65;;;;;;;;;;4978350;28;20288;-83
2023/08/05 11:21:39;;;;;;;2.05;0.77;;;;;;;;;;4987018;28;20525;-82
2023/08/05 11:24:05;;;;;;;0.80;0.70;;;;;;;;;;4983152;28;20022;-82
2023/08/05 11:26:31;;;;;;;1.80;0.70;;;;;;;;;;4979232;28;20042;-82
2023/08/05 11:29:00;;;;;;;0.55;0.30;;;23.30;99.40;;;;;;4999748;28;20691;-83
2023/08/05 11:31:27;;;;;;;1.05;0.50;;;;;;;;;;4995546;28;20022;-83
2023/08/05 11:33:53;;;;;;;1.02;0.43;;;24.60;99.50;;;;;;4992818;28;20026;-83
2023/08/05 11:36:26;;;;;;;1.10;0.47;;;24.50;96.70;;;;;;4994511;28;20044;-82
2023/08/05 11:38:54;;;;;;;3.15;1.05;;;;;;;;;;4988737;28;20659;-83
2023/08/05 11:41:20;;;;;;;2.05;0.40;;;;;;;;;;4994078;28;20035;-82
2023/08/05 11:43:46;;;;;;;2.92;0.70;;;;;;;;;;5000292;28;20026;-81
2023/08/05 11:46:29;;;;;;;2.70;0.85;;;24.30;95.10;;;;;;4996466;28;20027;-81
2023/08/05 11:49:14;;;;;;;1.20;0.52;;;23.80;95.60;;;;;;5000859;28;20025;-83
2023/08/05 11:51:47;;;;;;;3.35;0.60;;;23.60;99.90;;;;;;4989787;28;20498;-83
2023/08/05 11:54:13;;;;;;;0.85;0.60;;;;;;;;;;4997685;28;20030;-83
2023/08/05 11:56:39;;;;;;;2.88;0.98;;;;;;;;;;5000765;28;20558;-83
2023/08/05 11:59:05;;;;;;;1.65;0.70;;;;;;;;;;4986414;28;20147;-82
2023/08/05 12:01:39;;;;;;;0.98;0.43;;;24.30;98.20;;;;;;4992631;28;20045;-83
2023/08/05 12:04:07;;;;;;;0.85;0.40;;;24.30;98.30;;;;;;5000890;28;20400;-83
2023/08/05 12:06:33;;;;;;;2.20;0.70;;;;;;;;;;4997901;28;20518;-83
2023/08/05 12:09:00;;;;;;;2.67;1.13;;;24.30;98.70;;;;;;5001307;28;20089;-83
2023/08/05 12:11:26;;;;;;;1.52;0.80;;;;;;;;;;5013213;28;20033;-79
2023/08/05 12:13:52;;;;;;;6.20;0.95;;;23.40;99.90;;;;;;5006984;28;20033;-82
2023/08/05 12:16:18;;;;;;;1.10;0.43;;;;;;;;;;5002239;28;20048;-81
2023/08/05 12:18:45;;;;;;;1.92;0.85;;;23.90;99.30;;;;;;5000762;28;20027;-82
2023/08/05 12:21:11;;;;;;;1.00;0.60;;;23.80;99.40;;;;;;4998387;28;20592;-82
2023/08/05 12:23:46;;;;;;;1.15;0.50;;;;;;;;;;4995246;28;20026;-81
2023/08/05 12:26:14;;;;;;;1.10;0.60;;;;;;;;;;5000157;28;20045;-81
2023/08/05 12:28:40;;;;;;;3.65;0.70;;;;;;;;;;5000583;28;20026;-83
2023/08/05 12:31:06;;;;;;;1.45;0.80;;;22.70;99.90;;;;;;4998591;28;20583;-84
2023/08/05 12:33:32;;;;;;;1.90;0.90;;;;;;;;;;4996418;28;20030;-82
2023/08/05 12:35:58;;;;;;;1.95;0.90;;;;;;;;;;5001096;28;20041;-82
2023/08/05 12:38:25;;;;;;;2.63;1.02;;;;;;;;;;5000027;28;20048;-84
2023/08/05 12:40:51;;;;;;;3.97;0.80;;;;;;;;;;5004203;28;20030;-82
2023/08/05 12:43:18;;;;;;;6.22;0.82;;;;;;;;;;4989360;28;20586;-83
2023/08/05 12:45:44;;;;;;;1.52;0.68;;;;;;;;;;5013124;28;20029;-82
2023/08/05 12:48:09;;;;;;;1.90;1.00;;;;;;;;;;5011315;28;20036;-84
2023/08/05 12:50:35;;;;;;;1.73;0.50;;;;;;;;;;4994875;28;20030;-84
2023/08/05 12:53:01;;;;;;;2.50;0.65;;;;;;;;;;5017993;28;20441;-83
2023/08/05 12:55:27;;;;;;;1.73;0.93;;;;;;;;;;5020322;28;20471;-84
2023/08/05 12:57:54;;;;;;;5.03;0.82;;;;;;;;;;5010985;28;20025;-83
2023/08/05 13:00:20;;;;;;;2.95;0.75;;;;;;;;;;5014944;28;20037;-84
2023/08/05 13:02:48;;;;;;;1.00;0.68;;;;;;;;;;5010387;28;20076;-80
2023/08/05 13:05:14;;;;;;;3.33;0.70;;;;;;;;;;5009703;28;20393;-81
2023/08/05 13:07:40;;;;;;;1.73;0.80;;;;;;;;;;4975888;28;20032;-81
2023/08/05 13:10:06;;;;;;;2.00;0.77;;;22.10;99.90;;;;;;5009051;28;20403;-81
2023/08/05 13:12:32;;;;;;;1.60;0.70;;;;;;;;;;5011028;28;20104;-81
2023/08/05 13:14:57;;;;;;;2.33;0.80;;;22.00;99.90;;;;;;5015023;28;20045;-81
2023/08/05 13:17:23;;;;;;;3.78;0.82;;;;;;;;;;4995664;28;20441;-83
2023/08/05 13:19:49;;;;;;;1.33;0.63;;;;;;;;;;4992490;28;20026;-82
2023/08/05 13:22:16;;;;;;;1.75;0.77;;;;;;;;;;5009740;28;20406;-80
2023/08/05 13:24:42;;;;;;;2.50;0.73;;;22.00;99.90;;;;;;5009093;28;20030;-81
2023/08/05 13:27:07;;;;;;;3.15;1.00;;;21.80;99.90;;;;;;5012624;28;20025;-81
2023/08/05 13:29:33;;;;;;;5.97;0.93;;;;;;;;;;4989514;28;20041;-81
2023/08/05 13:31:59;;;;;;;1.80;0.82;;;;;;;;;;5011946;28;20033;-79
2023/08/05 13:34:25;;;;;;;3.10;1.50;;;;;;;;;;5011844;28;20029;-81
2023/08/05 13:36:51;;;;;;;5.10;1.98;;;;;;;;;;4992123;28;20116;-81
2023/08/05 13:39:17;;;;;;;2.05;1.17;;;;;;;;;;5018330;28;20053;-81
2023/08/05 13:41:43;;;;;;;2.03;1.13;;;;;;;;;;5010232;28;20033;-82
2023/08/05 13:44:09;;;;;;;0.85;0.50;;;;;;;;;;5010869;28;20018;-79
2023/08/05 13:46:35;;;;;;;1.63;0.90;;;;;;;;;;5036145;28;20086;-79
2023/08/05 13:49:01;;;;;;;3.38;0.90;;;;;;;;;;5007834;28;20475;-82
2023/08/05 13:51:27;;;;;;;1.70;0.93;;;;;;;;;;4995140;28;20034;-81
2023/08/05 13:53:55;;;;;;;3.20;0.98;;;;;;;;;;5013430;28;20033;-82
2023/08/05 13:56:21;;;;;;;1.80;0.77;;;;;;;;;;5011429;28;20363;-81
2023/08/05 13:58:48;;;;;;;1.73;0.60;;;;;;;;;;5013601;28;20032;-82
2023/08/05 14:01:15;;;;;;;1.50;0.55;;;;;;;;;;5014259;28;20097;-83
2023/08/05 14:03:41;;;;;;;3.28;0.47;;;;;;;;;;5002487;28;20023;-83
2023/08/05 14:06:08;;;;;;;2.45;0.88;;;22.40;99.90;;;;;;4995257;28;20036;-83
2023/08/05 14:08:34;;;;;;;1.60;0.77;;;;;;;;;;4999725;28;20129;-83
2023/08/05 14:10:59;;;;;;;0.85;0.60;;;22.40;99.90;;;;;;5009157;28;20038;-84
2023/08/05 14:13:25;;;;;;;3.22;1.65;;;;;;;;;;5017625;28;20034;-83